sensor_id;sensor_type;location;lat;lon;timestamp;pressure;altitude;pressure_sealevel;temperature;humidity
47670;BME280;33408;52.062;11.722;2023-03-20T00:01:46;101222.22;;;10.11;100.00
47670;BME280;33408;52.062;11.722;2023-03-20T00:04:13;101223.97;;;10.06;100.00
47670;BME280;33408;52.062;11.722;2023-03-20T00:06:39;101220.47;;;10.10;100.00
47670;BME280;33408;52.062;11.722;2023-03-20T00:09:06;101217.91;;;10.07;100.00
47670;BME280;33408;52.062;11.722;2023-03-20T00:11:36;101222.25;;;10.07;100.00
47670;BME280;33408;52.062;11.722;2023-03-20T00:14:07;101223.91;;;10.12;100.00
47670;BME280;33408;52.062;11.722;2023-03-20T00:16:37;101225.63;;;10.15;100.00
47670;BME280;33408;52.062;11.722;2023-03-20T00:19:05;101221.31;;;10.12;100.00
47670;BME280;33408;52.062;11.722;2023-03-20T00:21:32;101217.94;;;10.06;100.00
47670;BME280;33408;52.062;11.722;2023-03-20T00:23:59;101223.13;;;10.04;100.00
47670;BME280;33408;52.062;11.722;2023-03-20T00:26:29;101221.38;;;10.06;100.00
47670;BME280;33408;52.062;11.722;2023-03-20T00:28:58;101221.47;;;9.98;100.00
47670;BME280;33408;52.062;11.722;2023-03-20T00:31:28;101218.91;;;9.92;100.00
47670;BME280;33408;52.062;11.722;2023-03-20T00:33:56;101226.75;;;9.83;100.00
47670;BME280;33408;52.062;11.722;2023-03-20T00:36:23;101218.16;;;9.76;100.00
47670;BME280;33408;52.062;11.722;2023-03-20T00:38:50;101230.28;;;9.74;100.00
47670;BME280;33408;52.062;11.722;2023-03-20T00:41:22;101230.28;;;9.73;100.00
47670;BME280;33408;52.062;11.722;2023-03-20T00:43:52;101227.66;;;9.79;100.00
47670;BME280;33408;52.062;11.722;2023-03-20T00:46:22;101224.19;;;9.78;100.00
47670;BME280;33408;52.062;11.722;2023-03-20T00:48:49;101226.81;;;9.72;100.00
47670;BME280;33408;52.062;11.722;2023-03-20T00:51:16;101231.97;;;9.77;100.00
47670;BME280;33408;52.062;11.722;2023-03-20T00:53:43;101234.50;;;9.86;100.00
47670;BME280;33408;52.062;11.722;2023-03-20T00:56:31;101226.75;;;9.80;100.00
47670;BME280;33408;52.062;11.722;2023-03-20T00:59:00;101232.91;;;9.65;100.00
47670;BME280;33408;52.062;11.722;2023-03-20T01:01:29;101230.28;;;9.73;100.00
47670;BME280;33408;52.062;11.722;2023-03-20T01:03:56;101238.03;;;9.77;100.00
47670;BME280;33408;52.062;11.722;2023-03-20T01:06:23;101225.94;;;9.75;100.00
47670;BME280;33408;52.062;11.722;2023-03-20T01:08:50;101230.25;;;9.76;100.00
47670;BME280;33408;52.062;11.722;2023-03-20T01:11:20;101229.38;;;9.75;100.00
47670;BME280;33408;52.062;11.722;2023-03-20T01:13:48;101218.94;;;9.88;100.00
47670;BME280;33408;52.062;11.722;2023-03-20T01:16:19;101217.19;;;9.90;100.00
47670;BME280;33408;52.062;11.722;2023-03-20T01:18:48;101215.50;;;9.89;100.00
47670;BME280;33408;52.062;11.722;2023-03-20T01:21:15;101219.75;;;9.93;100.00
47670;BME280;33408;52.062;11.722;2023-03-20T01:23:42;101219.69;;;10.02;100.00
47670;BME280;33408;52.062;11.722;2023-03-20T01:26:19;101220.56;;;10.01;100.00
47670;BME280;33408;52.062;11.722;2023-03-20T01:28:47;101217.13;;;10.00;100.00
47670;BME280;33408;52.062;11.722;2023-03-20T01:31:15;101218.94;;;9.89;100.00
47670;BME280;33408;52.062;11.722;2023-03-20T01:33:42;101220.81;;;9.68;100.00
47670;BME280;33408;52.062;11.722;2023-03-20T01:36:11;101224.16;;;9.83;100.00
47670;BME280;33408;52.062;11.722;2023-03-20T01:38:39;101222.47;;;9.77;100.00
47670;BME280;33408;52.062;11.722;2023-03-20T01:41:07;101227.53;;;9.94;100.00
47670;BME280;33408;52.062;11.722;2023-03-20T01:43:37;101218.09;;;9.85;100.00
47670;BME280;33408;52.062;11.722;2023-03-20T01:46:15;101214.72;;;9.79;100.00
47670;BME280;33408;52.062;11.722;2023-03-20T01:48:59;101219.00;;;9.78;100.00
47670;BME280;33408;52.062;11.722;2023-03-20T01:51:29;101226.78;;;9.75;100.00
47670;BME280;33408;52.062;11.722;2023-03-20T01:53:59;101213.09;;;9.56;100.00
47670;BME280;33408;52.062;11.722;2023-03-20T01:56:29;101217.41;;;9.59;100.00
47670;BME280;33408;52.062;11.722;2023-03-20T01:59:00;101229.53;;;9.54;100.00
47670;BME280;33408;52.062;11.722;2023-03-20T02:01:28;101220.81;;;9.67;100.00
47670;BME280;33408;52.062;11.722;2023-03-20T02:03:55;101217.34;;;9.71;100.00
47670;BME280;33408;52.062;11.722;2023-03-20T02:06:23;101221.63;;;9.72;100.00
47670;BME280;33408;52.062;11.722;2023-03-20T02:08:52;101221.66;;;9.67;100.00
47670;BME280;33408;52.062;11.722;2023-03-20T02:11:21;101217.31;;;9.74;100.00
47670;BME280;33408;52.062;11.722;2023-03-20T02:13:50;101219.91;;;9.77;100.00
47670;BME280;33408;52.062;11.722;2023-03-20T02:16:18;101220.75;;;9.76;100.00
47670;BME280;33408;52.062;11.722;2023-03-20T02:18:47;101221.78;;;9.51;100.00
47670;BME280;33408;52.062;11.722;2023-03-20T02:21:32;101219.25;;;9.38;100.00
47670;BME280;33408;52.062;11.722;2023-03-20T02:24:37;101226.97;;;9.49;100.00
47670;BME280;33408;52.062;11.722;2023-03-20T02:27:17;101222.75;;;9.34;100.00
47670;BME280;33408;52.062;11.722;2023-03-20T02:30:21;101218.47;;;9.28;100.00
47670;BME280;33408;52.062;11.722;2023-03-20T02:39:45;101228.69;;;9.50;100.00
47670;BME280;33408;52.062;11.722;2023-03-20T02:42:19;101219.19;;;9.54;100.00
47670;BME280;33408;52.062;11.722;2023-03-20T02:44:52;101227.81;;;9.54;100.00
47670;BME280;33408;52.062;11.722;2023-03-20T02:47:26;101226.91;;;9.60;100.00
47670;BME280;33408;52.062;11.722;2023-03-20T02:50:02;101224.25;;;9.69;100.00
47670;BME280;33408;52.062;11.722;2023-03-20T02:52:40;101232.88;;;9.74;100.00
47670;BME280;33408;52.062;11.722;2023-03-20T02:55:15;101236.28;;;9.79;100.00
47670;BME280;33408;52.062;11.722;2023-03-20T02:57:49;101228.50;;;9.79;100.00
47670;BME280;33408;52.062;11.722;2023-03-20T03:00:23;101233.63;;;9.90;100.00
47670;BME280;33408;52.062;11.722;2023-03-20T03:02:57;101240.44;;;9.97;100.00
47670;BME280;33408;52.062;11.722;2023-03-20T03:05:32;101240.50;;;9.91;100.00
47670;BME280;33408;52.062;11.722;2023-03-20T03:08:01;101237.06;;;9.88;100.00
47670;BME280;33408;52.062;11.722;2023-03-20T03:10:35;101231.88;;;9.89;100.00
47670;BME280;33408;52.062;11.722;2023-03-20T03:13:04;101239.69;;;9.81;100.00
47670;BME280;33408;52.062;11.722;2023-03-20T03:15:36;101240.59;;;9.77;100.00
47670;BME280;33408;52.062;11.722;2023-03-20T03:18:05;101245.78;;;9.77;100.00
47670;BME280;33408;52.062;11.722;2023-03-20T03:20:35;101247.47;;;9.83;100.00
47670;BME280;33408;52.062;11.722;2023-03-20T03:23:04;101251.69;;;9.95;100.00
47670;BME280;33408;52.062;11.722;2023-03-20T03:25:35;101252.53;;;10.01;100.00
47670;BME280;33408;52.062;11.722;2023-03-20T03:28:04;101250.75;;;10.07;100.00
47670;BME280;33408;52.062;11.722;2023-03-20T03:30:36;101248.97;;;10.13;100.00
47670;BME280;33408;52.062;11.722;2023-03-20T03:33:12;101251.53;;;10.16;100.00
47670;BME280;33408;52.062;11.722;2023-03-20T03:35:40;101254.13;;;10.15;100.00
47670;BME280;33408;52.062;11.722;2023-03-20T03:38:22;101255.03;;;10.09;100.00
47670;BME280;33408;52.062;11.722;2023-03-20T03:40:56;101256.69;;;10.19;100.00
47670;BME280;33408;52.062;11.722;2023-03-20T03:43:30;101261.09;;;10.08;100.00
47670;BME280;33408;52.062;11.722;2023-03-20T03:46:05;101273.13;;;10.12;100.00
47670;BME280;33408;52.062;11.722;2023-03-20T03:48:39;101267.97;;;10.09;100.00
47670;BME280;33408;52.062;11.722;2023-03-20T03:51:09;101269.72;;;10.09;100.00
47670;BME280;33408;52.062;11.722;2023-03-20T03:53:40;101274.88;;;10.12;100.00
47670;BME280;33408;52.062;11.722;2023-03-20T03:56:11;101271.44;;;10.13;100.00
47670;BME280;33408;52.062;11.722;2023-03-20T03:58:41;101274.03;;;10.10;100.00
47670;BME280;33408;52.062;11.722;2023-03-20T04:01:09;101276.59;;;10.14;100.00
47670;BME280;33408;52.062;11.722;2023-03-20T04:03:39;101284.38;;;10.13;100.00
47670;BME280;33408;52.062;11.722;2023-03-20T04:06:09;101278.34;;;10.09;100.00
47670;BME280;33408;52.062;11.722;2023-03-20T04:08:38;101279.13;;;10.17;100.00
47670;BME280;33408;52.062;11.722;2023-03-20T04:11:05;101280.88;;;10.18;100.00
47670;BME280;33408;52.062;11.722;2023-03-20T04:13:34;101281.78;;;10.14;100.00
47670;BME280;33408;52.062;11.722;2023-03-20T04:16:00;101280.06;;;10.12;100.00
47670;BME280;33408;52.062;11.722;2023-03-20T04:18:27;101290.41;;;10.15;100.00
47670;BME280;33408;52.062;11.722;2023-03-20T04:20:53;101292.97;;;10.16;100.00
47670;BME280;33408;52.062;11.722;2023-03-20T04:23:20;101297.25;;;10.17;100.00
47670;BME280;33408;52.062;11.722;2023-03-20T04:25:48;101303.31;;;10.21;100.00
47670;BME280;33408;52.062;11.722;2023-03-20T04:28:15;101297.31;;;10.14;100.00
47670;BME280;33408;52.062;11.722;2023-03-20T04:30:43;101312.00;;;10.12;100.00
47670;BME280;33408;52.062;11.722;2023-03-20T04:33:12;101305.16;;;10.05;100.00
47670;BME280;33408;52.062;11.722;2023-03-20T04:35:39;101314.69;;;10.00;100.00
47670;BME280;33408;52.062;11.722;2023-03-20T04:38:05;101320.78;;;9.91;100.00
47670;BME280;33408;52.062;11.722;2023-03-20T04:40:33;101326.06;;;9.77;100.00
47670;BME280;33408;52.062;11.722;2023-03-20T04:42:59;101328.66;;;9.71;100.00
47670;BME280;33408;52.062;11.722;2023-03-20T04:45:26;101324.38;;;9.62;100.00
47670;BME280;33408;52.062;11.722;2023-03-20T04:47:54;101336.47;;;9.62;100.00
47670;BME280;33408;52.062;11.722;2023-03-20T04:50:20;101329.66;;;9.44;100.00
47670;BME280;33408;52.062;11.722;2023-03-20T04:52:47;101330.53;;;9.38;100.00
47670;BME280;33408;52.062;11.722;2023-03-20T04:55:14;101326.25;;;9.34;100.00
47670;BME280;33408;52.062;11.722;2023-03-20T04:57:40;101329.69;;;9.36;100.00
47670;BME280;33408;52.062;11.722;2023-03-20T05:00:08;101330.53;;;9.35;100.00
47670;BME280;33408;52.062;11.722;2023-03-20T05:02:35;101330.53;;;9.38;100.00
47670;BME280;33408;52.062;11.722;2023-03-20T05:05:04;101327.94;;;9.35;100.00
47670;BME280;33408;52.062;11.722;2023-03-20T05:07:30;101332.25;;;9.41;100.00
47670;BME280;33408;52.062;11.722;2023-03-20T05:09:57;101323.63;;;9.40;100.00
47670;BME280;33408;52.062;11.722;2023-03-20T05:12:24;101327.09;;;9.35;100.00
47670;BME280;33408;52.062;11.722;2023-03-20T05:14:51;101331.44;;;9.31;100.00
47670;BME280;33408;52.062;11.722;2023-03-20T05:17:19;101329.72;;;9.27;100.00
47670;BME280;33408;52.062;11.722;2023-03-20T05:19:45;101326.25;;;9.28;100.00
47670;BME280;33408;52.062;11.722;2023-03-20T05:22:13;101331.44;;;9.25;100.00
47670;BME280;33408;52.062;11.722;2023-03-20T05:24:40;101334.00;;;9.31;100.00
47670;BME280;33408;52.062;11.722;2023-03-20T05:27:06;101340.94;;;9.24;100.00
47670;BME280;33408;52.062;11.722;2023-03-20T05:29:33;101332.31;;;9.24;100.00
47670;BME280;33408;52.062;11.722;2023-03-20T05:32:00;101343.53;;;9.21;100.00
47670;BME280;33408;52.062;11.722;2023-03-20T05:34:27;101345.25;;;9.21;100.00
47670;BME280;33408;52.062;11.722;2023-03-20T05:36:53;101350.41;;;9.19;100.00
47670;BME280;33408;52.062;11.722;2023-03-20T05:39:21;101349.56;;;9.20;100.00
47670;BME280;33408;52.062;11.722;2023-03-20T05:41:48;101341.78;;;9.23;100.00
47670;BME280;33408;52.062;11.722;2023-03-20T05:44:15;101346.97;;;9.25;100.00
47670;BME280;33408;52.062;11.722;2023-03-20T05:46:41;101347.81;;;9.24;100.00
47670;BME280;33408;52.062;11.722;2023-03-20T05:49:08;101345.22;;;9.30;100.00
47670;BME280;33408;52.062;11.722;2023-03-20T05:51:35;101341.78;;;9.31;100.00
47670;BME280;33408;52.062;11.722;2023-03-20T05:54:01;101344.38;;;9.28;100.00
47670;BME280;33408;52.062;11.722;2023-03-20T05:56:29;101344.38;;;9.28;100.00
47670;BME280;33408;52.062;11.722;2023-03-20T05:58:56;101346.94;;;9.34;100.00
47670;BME280;33408;52.062;11.722;2023-03-20T06:01:22;101346.88;;;9.45;100.00
47670;BME280;33408;52.062;11.722;2023-03-20T06:03:49;101352.13;;;9.29;100.00
47670;BME280;33408;52.062;11.722;2023-03-20T06:06:16;101350.41;;;9.28;100.00
47670;BME280;33408;52.062;11.722;2023-03-20T06:08:43;101358.16;;;9.35;100.00
47670;BME280;33408;52.062;11.722;2023-03-20T06:11:11;101355.53;;;9.44;100.00
47670;BME280;33408;52.062;11.722;2023-03-20T06:13:38;101350.34;;;9.52;100.00
47670;BME280;33408;52.062;11.722;2023-03-20T06:16:06;101349.53;;;9.40;100.00
47670;BME280;33408;52.062;11.722;2023-03-20T06:18:33;101358.97;;;9.44;100.00
47670;BME280;33408;52.062;11.722;2023-03-20T06:20:59;101360.69;;;9.47;100.00
47670;BME280;33408;52.062;11.722;2023-03-20T06:23:26;101364.13;;;9.47;100.00
47670;BME280;33408;52.062;11.722;2023-03-20T06:25:53;101362.38;;;9.60;100.00
47670;BME280;33408;52.062;11.722;2023-03-20T06:28:20;101364.03;;;9.74;100.00
47670;BME280;33408;52.062;11.722;2023-03-20T06:30:50;101357.06;;;9.80;100.00
47670;BME280;33408;52.062;11.722;2023-03-20T06:33:17;101353.66;;;9.77;100.00
47670;BME280;33408;52.062;11.722;2023-03-20T06:35:44;101357.06;;;9.80;100.00
47670;BME280;33408;52.062;11.722;2023-03-20T06:38:11;101346.69;;;9.88;100.00
47670;BME280;33408;52.062;11.722;2023-03-20T06:40:37;101346.63;;;10.02;100.00
47670;BME280;33408;52.062;11.722;2023-03-20T06:43:05;101349.13;;;10.14;100.00
47670;BME280;33408;52.062;11.722;2023-03-20T06:45:32;101347.31;;;10.26;100.00
47670;BME280;33408;52.062;11.722;2023-03-20T06:48:00;101339.50;;;10.33;100.00
47670;BME280;33408;52.062;11.722;2023-03-20T06:50:26;101342.84;;;10.46;100.00
47670;BME280;33408;52.062;11.722;2023-03-20T06:52:53;101348.88;;;10.53;100.00
47670;BME280;33408;52.062;11.722;2023-03-20T06:55:19;101349.84;;;10.36;100.00
47670;BME280;33408;52.062;11.722;2023-03-20T06:57:48;101356.72;;;10.45;100.00
47670;BME280;33408;52.062;11.722;2023-03-20T07:00:16;101355.03;;;10.38;100.00
47670;BME280;33408;52.062;11.722;2023-03-20T07:02:43;101363.56;;;10.51;100.00
47670;BME280;33408;52.062;11.722;2023-03-20T07:05:11;101366.81;;;10.76;100.00
47670;BME280;33408;52.062;11.722;2023-03-20T07:07:37;101366.50;;;11.10;100.00
47670;BME280;33408;52.062;11.722;2023-03-20T07:10:05;101364.63;;;11.21;100.00
47670;BME280;33408;52.062;11.722;2023-03-20T07:12:31;101377.38;;;11.40;100.00
47670;BME280;33408;52.062;11.722;2023-03-20T07:14:58;101372.31;;;11.32;100.00
47670;BME280;33408;52.062;11.722;2023-03-20T07:17:25;101378.47;;;11.22;100.00
47670;BME280;33408;52.062;11.722;2023-03-20T07:19:51;101378.59;;;11.12;100.00
47670;BME280;33408;52.062;11.722;2023-03-20T07:22:22;101372.47;;;11.17;100.00
47670;BME280;33408;52.062;11.722;2023-03-20T07:24:49;101375.06;;;11.15;100.00
47670;BME280;33408;52.062;11.722;2023-03-20T07:27:16;101371.91;;;10.87;100.00
47670;BME280;33408;52.062;11.722;2023-03-20T07:29:43;101374.91;;;10.39;100.00
47670;BME280;33408;52.062;11.722;2023-03-20T07:32:10;101383.50;;;10.43;100.00
47670;BME280;33408;52.062;11.722;2023-03-20T07:34:37;101387.00;;;10.40;100.00
47670;BME280;33408;52.062;11.722;2023-03-20T07:37:04;101385.31;;;10.33;100.00
47670;BME280;33408;52.062;11.722;2023-03-20T07:39:32;101389.69;;;10.18;100.00
47670;BME280;33408;52.062;11.722;2023-03-20T07:41:59;101397.47;;;10.15;100.00
47670;BME280;33408;52.062;11.722;2023-03-20T07:44:26;101396.69;;;9.99;100.00
47670;BME280;33408;52.062;11.722;2023-03-20T07:46:52;101404.38;;;10.18;100.00
47670;BME280;33408;52.062;11.722;2023-03-20T07:49:19;101402.63;;;10.21;100.00
47670;BME280;33408;52.062;11.722;2023-03-20T07:51:47;101405.25;;;10.14;100.00
47670;BME280;33408;52.062;11.722;2023-03-20T07:54:14;101397.47;;;10.15;100.00
47670;BME280;33408;52.062;11.722;2023-03-20T07:56:42;101395.66;;;10.33;100.00
47670;BME280;33408;52.062;11.722;2023-03-20T07:59:09;101394.72;;;10.45;100.00
47670;BME280;33408;52.062;11.722;2023-03-20T08:01:35;101397.28;;;10.46;100.00
47670;BME280;33408;52.062;11.722;2023-03-20T08:04:02;101395.56;;;10.48;100.00
47670;BME280;33408;52.062;11.722;2023-03-20T08:06:28;101395.56;;;10.50;100.00
47670;BME280;33408;52.062;11.722;2023-03-20T08:08:55;101397.16;;;10.66;100.00
47670;BME280;33408;52.062;11.722;2023-03-20T08:11:22;101398.94;;;10.60;100.00
47670;BME280;33408;52.062;11.722;2023-03-20T08:13:50;101411.00;;;10.64;100.00
47670;BME280;33408;52.062;11.722;2023-03-20T08:16:17;101398.13;;;10.53;100.00
47670;BME280;33408;52.062;11.722;2023-03-20T08:18:43;101393.69;;;10.66;100.00
47670;BME280;33408;52.062;11.722;2023-03-20T08:21:10;101399.69;;;10.74;100.00
47670;BME280;33408;52.062;11.722;2023-03-20T08:23:36;101397.88;;;10.85;100.00
47670;BME280;33408;52.062;11.722;2023-03-20T08:26:03;101395.09;;;11.01;100.00
47670;BME280;33408;52.062;11.722;2023-03-20T08:28:30;101404.66;;;10.99;100.00
47670;BME280;33408;52.062;11.722;2023-03-20T08:30:57;101400.28;;;11.04;100.00
47670;BME280;33408;52.062;11.722;2023-03-20T08:33:24;101398.69;;;10.90;100.00
47670;BME280;33408;52.062;11.722;2023-03-20T08:35:55;101402.88;;;11.04;100.00
47670;BME280;33408;52.062;11.722;2023-03-20T08:38:21;101399.50;;;10.92;100.00
47670;BME280;33408;52.062;11.722;2023-03-20T08:40:48;101397.72;;;10.98;100.00
47670;BME280;33408;52.062;11.722;2023-03-20T08:43:14;101395.13;;;10.98;100.00
47670;BME280;33408;52.062;11.722;2023-03-20T08:45:41;101402.06;;;10.99;100.00
47670;BME280;33408;52.062;11.722;2023-03-20T08:48:09;101408.88;;;11.07;100.00
47670;BME280;33408;52.062;11.722;2023-03-20T08:50:36;101407.16;;;11.08;100.00
47670;BME280;33408;52.062;11.722;2023-03-20T08:53:03;101399.47;;;10.99;100.00
47670;BME280;33408;52.062;11.722;2023-03-20T08:55:30;101409.88;;;10.95;100.00
47670;BME280;33408;52.062;11.722;2023-03-20T08:57:57;101397.59;;;11.15;100.00
47670;BME280;33408;52.062;11.722;2023-03-20T09:00:24;101403.56;;;11.20;100.00
47670;BME280;33408;52.062;11.722;2023-03-20T09:02:52;101399.25;;;11.20;100.00
47670;BME280;33408;52.062;11.722;2023-03-20T09:05:20;101405.22;;;11.28;100.00
47670;BME280;33408;52.062;11.722;2023-03-20T09:07:47;101398.13;;;11.41;100.00
47670;BME280;33408;52.062;11.722;2023-03-20T09:10:14;101394.59;;;11.52;100.00
47670;BME280;33408;52.062;11.722;2023-03-20T09:12:40;101400.81;;;11.37;100.00
47670;BME280;33408;52.062;11.722;2023-03-20T09:15:07;101394.59;;;11.52;100.00
47670;BME280;33408;52.062;11.722;2023-03-20T09:17:34;101397.78;;;11.74;100.00
47670;BME280;33408;52.062;11.722;2023-03-20T09:20:01;101397.94;;;11.61;100.00
47670;BME280;33408;52.062;11.722;2023-03-20T09:22:29;101391.06;;;11.56;100.00
47670;BME280;33408;52.062;11.722;2023-03-20T09:24:56;101397.94;;;11.60;100.00
47670;BME280;33408;52.062;11.722;2023-03-20T09:27:22;101396.06;;;11.71;100.00
47670;BME280;33408;52.062;11.722;2023-03-20T09:29:49;101395.25;;;11.67;100.00
47670;BME280;33408;52.062;11.722;2023-03-20T09:32:16;101390.16;;;11.58;100.00
47670;BME280;33408;52.062;11.722;2023-03-20T09:34:42;101393.41;;;11.77;100.00
47670;BME280;33408;52.062;11.722;2023-03-20T09:37:09;101394.16;;;11.87;100.00
47670;BME280;33408;52.062;11.722;2023-03-20T09:39:37;101380.88;;;12.09;100.00
47670;BME280;33408;52.062;11.722;2023-03-20T09:42:09;101389.19;;;12.34;100.00
47670;BME280;33408;52.062;11.722;2023-03-20T09:44:49;101386.72;;;12.25;100.00
47670;BME280;33408;52.062;11.722;2023-03-20T09:47:22;101388.84;;;11.98;100.00
47670;BME280;33408;52.062;11.722;2023-03-20T09:50:06;101398.59;;;11.77;100.00
47670;BME280;33408;52.062;11.722;2023-03-20T09:52:39;101399.25;;;11.98;100.00
47670;BME280;33408;52.062;11.722;2023-03-20T09:55:13;101389.63;;;12.03;100.00
47670;BME280;33408;52.062;11.722;2023-03-20T09:57:42;101398.19;;;12.10;100.00
47670;BME280;33408;52.062;11.722;2023-03-20T10:00:12;101402.25;;;12.28;100.00
47670;BME280;33408;52.062;11.722;2023-03-20T10:02:45;101401.69;;;12.07;100.00
47670;BME280;33408;52.062;11.722;2023-03-20T10:05:18;101408.69;;;12.02;100.00
47670;BME280;33408;52.062;11.722;2023-03-20T10:07:47;101406.41;;;11.76;100.00
47670;BME280;33408;52.062;11.722;2023-03-20T10:10:15;101408.81;;;11.93;100.00
47670;BME280;33408;52.062;11.722;2023-03-20T10:12:58;101400.00;;;12.04;100.00
47670;BME280;33408;52.062;11.722;2023-03-20T10:15:37;101414.09;;;11.85;100.00
47670;BME280;33408;52.062;11.722;2023-03-20T10:18:12;101399.84;;;12.14;100.00
47670;BME280;33408;52.062;11.722;2023-03-20T10:20:46;101405.31;;;11.97;100.00
47670;BME280;33408;52.062;11.722;2023-03-20T10:23:20;101400.13;;;11.95;100.00
47670;BME280;33408;52.062;11.722;2023-03-20T10:25:55;101394.84;;;12.03;100.00
47670;BME280;33408;52.062;11.722;2023-03-20T10:28:24;101381.97;;;11.89;100.00
47670;BME280;33408;52.062;11.722;2023-03-20T10:30:59;101394.72;;;12.11;100.00
47670;BME280;33408;52.062;11.722;2023-03-20T10:33:43;101387.13;;;11.97;100.00
47670;BME280;33408;52.062;11.722;2023-03-20T10:36:24;101391.50;;;11.93;100.00
47670;BME280;33408;52.062;11.722;2023-03-20T10:38:59;101393.22;;;11.93;100.00
47670;BME280;33408;52.062;11.722;2023-03-20T10:41:34;101390.47;;;12.03;100.00
47670;BME280;33408;52.062;11.722;2023-03-20T10:44:04;101376.41;;;12.17;100.00
47670;BME280;33408;52.062;11.722;2023-03-20T10:46:35;101371.25;;;12.15;100.00
47670;BME280;33408;52.062;11.722;2023-03-20T10:49:12;101384.00;;;12.32;100.00
47670;BME280;33408;52.062;11.722;2023-03-20T10:51:47;101368.28;;;12.42;100.00
47670;BME280;33408;52.062;11.722;2023-03-20T10:54:21;101372.72;;;12.33;100.00
47670;BME280;33408;52.062;11.722;2023-03-20T10:56:52;101353.59;;;12.36;100.00
47670;BME280;33408;52.062;11.722;2023-03-20T10:59:23;101376.06;;;12.43;100.00
47670;BME280;33408;52.062;11.722;2023-03-20T11:01:50;101360.50;;;12.40;100.00
47670;BME280;33408;52.062;11.722;2023-03-20T11:04:17;101362.81;;;12.55;100.00
47670;BME280;33408;52.062;11.722;2023-03-20T11:06:47;101376.34;;;12.76;100.00
47670;BME280;33408;52.062;11.722;2023-03-20T11:09:19;101372.16;;;12.69;100.00
47670;BME280;33408;52.062;11.722;2023-03-20T11:11:46;101367.28;;;12.49;100.00
47670;BME280;33408;52.062;11.722;2023-03-20T11:14:17;101372.63;;;12.39;100.00
47670;BME280;33408;52.062;11.722;2023-03-20T11:16:47;101368.53;;;12.23;100.00
47670;BME280;33408;52.062;11.722;2023-03-20T11:19:14;101370.31;;;12.21;100.00
47670;BME280;33408;52.062;11.722;2023-03-20T11:21:47;101379.31;;;11.97;100.00
47670;BME280;33408;52.062;11.722;2023-03-20T11:24:19;101375.97;;;11.85;100.00
47670;BME280;33408;52.062;11.722;2023-03-20T11:26:50;101379.47;;;11.81;100.00
47670;BME280;33408;52.062;11.722;2023-03-20T11:29:23;101374.28;;;11.81;100.00
47670;BME280;33408;52.062;11.722;2023-03-20T11:32:03;101372.72;;;11.70;100.00
47670;BME280;33408;52.062;11.722;2023-03-20T11:34:32;101366.56;;;11.77;100.00
47670;BME280;33408;52.062;11.722;2023-03-20T11:37:05;101372.66;;;11.74;100.00
47670;BME280;33408;52.062;11.722;2023-03-20T11:39:33;101376.19;;;11.67;100.00
47670;BME280;33408;52.062;11.722;2023-03-20T11:42:02;101369.47;;;11.52;100.00
47670;BME280;33408;52.062;11.722;2023-03-20T11:44:32;101366.81;;;11.57;100.00
47670;BME280;33408;52.062;11.722;2023-03-20T11:47:01;101364.22;;;11.58;100.00
47670;BME280;33408;52.062;11.722;2023-03-20T11:49:29;101362.41;;;11.63;100.00
47670;BME280;33408;52.062;11.722;2023-03-20T11:52:00;101360.31;;;11.93;100.00
47670;BME280;33408;52.062;11.722;2023-03-20T11:54:28;101356.50;;;12.17;100.00
47670;BME280;33408;52.062;11.722;2023-03-20T11:56:56;101344.13;;;12.35;100.00
47670;BME280;33408;52.062;11.722;2023-03-20T11:59:25;101342.69;;;12.67;100.00
47670;BME280;33408;52.062;11.722;2023-03-20T12:01:56;101344.66;;;12.52;100.00
47670;BME280;33408;52.062;11.722;2023-03-20T12:04:28;101338.00;;;12.36;100.00
47670;BME280;33408;52.062;11.722;2023-03-20T12:07:00;101343.09;;;12.44;100.00
47670;BME280;33408;52.062;11.722;2023-03-20T12:09:36;101329.22;;;12.45;100.00
47670;BME280;33408;52.062;11.722;2023-03-20T12:12:12;101330.22;;;12.34;100.00
47670;BME280;33408;52.062;11.722;2023-03-20T12:14:44;101327.63;;;12.34;100.00
47670;BME280;33408;52.062;11.722;2023-03-20T12:17:40;101322.38;;;12.37;100.00
47670;BME280;33408;52.062;11.722;2023-03-20T12:20:16;101328.78;;;12.69;100.00
47670;BME280;33408;52.062;11.722;2023-03-20T12:22:50;101323.63;;;12.68;100.00
47670;BME280;33408;52.062;11.722;2023-03-20T12:25:21;101330.25;;;12.84;100.00
47670;BME280;33408;52.062;11.722;2023-03-20T12:27:55;101317.25;;;12.83;100.00
47670;BME280;33408;52.062;11.722;2023-03-20T12:30:31;101320.91;;;12.74;100.00
47670;BME280;33408;52.062;11.722;2023-03-20T12:33:06;101316.66;;;12.68;100.00
47670;BME280;33408;52.062;11.722;2023-03-20T12:35:39;101317.50;;;12.70;100.00
47670;BME280;33408;52.062;11.722;2023-03-20T12:38:26;101312.56;;;12.55;100.00
47670;BME280;33408;52.062;11.722;2023-03-20T12:40:55;101314.28;;;12.56;100.00
47670;BME280;33408;52.062;11.722;2023-03-20T12:43:26;101313.34;;;12.60;100.00
47670;BME280;33408;52.062;11.722;2023-03-20T12:46:00;101316.81;;;12.61;100.00
47670;BME280;33408;52.062;11.722;2023-03-20T12:48:48;101311.16;;;12.35;100.00
47670;BME280;33408;52.062;11.722;2023-03-20T12:51:24;101310.00;;;12.52;100.00
47670;BME280;33408;52.062;11.722;2023-03-20T12:54:07;101308.94;;;12.64;100.00